DABC/CZL METAR and TAF weather

Enter ICAO airport designator
Station Type Date Time Source
DABC METAR 2019/06/17 13:00 UTC NOAA

DABC 171300Z 33014KT 9999 SCT030 FEW033CB SCT200 23/14 Q1017


Station Type Date Time Source
DABC Decoded METAR 2019/06/17 13:00 UTC NOAA

Constantine, Algeria (DABC) 36-17N 006-37E 694M
Jun 17, 2019 - 09:00 AM EDT / 2019.06.17 1300 UTC
Wind: from the NNW (330 degrees) at 16 MPH (14 KT):0
Visibility: greater than 7 mile(s):0
Sky conditions: partly cloudy
Weather: Cumulonimbus clouds observed
Temperature: 73 F (23 C)
Dew Point: 57 F (14 C)
Relative Humidity: 56%
Pressure (altimeter): 30.03 in. Hg (1017 hPa)
ob: DABC 171300Z 33014KT 9999 SCT030 FEW033CB SCT200 23/14 Q1017
cycle: 13

Station Type Date Time Source
DABC TAF 2019/06/17 12:33 UTC NOAA

TAF DABC 171100Z 1712/1812 03013KT 9999 SCT023 BKN200 PROB40
TEMPO 1712/1718 03015G25KT FEW026CB PROB30
TEMPO 1714/1718 5000 -TSRA
BECMG 1720/1722 VRB02KT
BECMG 1808/1810 34012KT

Example: see airport list